sensor_id;sensor_type;location;lat;lon;timestamp;P1;durP1;ratioP1;P2;durP2;ratioP2
62121;SDS011;48108;47.532;19.084;2024-02-23T05:00:36;4.60;;;2.92;;
62121;SDS011;48108;47.532;19.084;2024-02-23T05:03:40;4.07;;;3.00;;
62121;SDS011;48108;47.532;19.084;2024-02-23T05:06:43;3.87;;;2.87;;
62121;SDS011;48108;47.532;19.084;2024-02-23T05:09:46;3.92;;;3.20;;
62121;SDS011;48108;47.532;19.084;2024-02-23T05:12:49;3.45;;;3.10;;
62121;SDS011;48108;47.532;19.084;2024-02-23T05:15:55;3.47;;;2.83;;
62121;SDS011;48108;47.532;19.084;2024-02-23T05:18:58;2.95;;;2.70;;
62121;SDS011;48108;47.532;19.084;2024-02-23T05:22:01;2.60;;;2.28;;
62121;SDS011;48108;47.532;19.084;2024-02-23T05:25:06;2.75;;;2.42;;
62121;SDS011;48108;47.532;19.084;2024-02-23T05:28:09;4.28;;;2.60;;
62121;SDS011;48108;47.532;19.084;2024-02-23T05:31:12;3.72;;;2.25;;
62121;SDS011;48108;47.532;19.084;2024-02-23T05:34:15;3.20;;;2.50;;
62121;SDS011;48108;47.532;19.084;2024-02-23T05:37:18;3.83;;;2.40;;
62121;SDS011;48108;47.532;19.084;2024-02-23T05:40:21;3.10;;;2.80;;
62121;SDS011;48108;47.532;19.084;2024-02-23T05:43:24;2.78;;;2.50;;
62121;SDS011;48108;47.532;19.084;2024-02-23T05:46:27;2.50;;;2.30;;
62121;SDS011;48108;47.532;19.084;2024-02-23T05:49:30;5.15;;;2.70;;
62121;SDS011;48108;47.532;19.084;2024-02-23T05:52:33;2.40;;;2.20;;
62121;SDS011;48108;47.532;19.084;2024-02-23T05:55:36;2.92;;;2.17;;
62121;SDS011;48108;47.532;19.084;2024-02-23T05:58:39;2.62;;;2.42;;
62121;SDS011;48108;47.532;19.084;2024-02-23T06:01:42;8.48;;;2.78;;
62121;SDS011;48108;47.532;19.084;2024-02-23T06:04:46;2.62;;;2.40;;
62121;SDS011;48108;47.532;19.084;2024-02-23T06:07:49;2.60;;;2.37;;
62121;SDS011;48108;47.532;19.084;2024-02-23T06:10:52;3.50;;;2.72;;
62121;SDS011;48108;47.532;19.084;2024-02-23T06:13:55;3.62;;;2.58;;
62121;SDS011;48108;47.532;19.084;2024-02-23T06:16:58;4.40;;;2.80;;
62121;SDS011;48108;47.532;19.084;2024-02-23T06:20:01;3.85;;;3.10;;
62121;SDS011;48108;47.532;19.084;2024-02-23T06:23:09;3.72;;;2.78;;
62121;SDS011;48108;47.532;19.084;2024-02-23T06:26:12;3.55;;;2.80;;
62121;SDS011;48108;47.532;19.084;2024-02-23T06:29:15;5.10;;;3.05;;
62121;SDS011;48108;47.532;19.084;2024-02-23T06:32:18;3.83;;;3.12;;
62121;SDS011;48108;47.532;19.084;2024-02-23T06:35:21;4.80;;;2.90;;
62121;SDS011;48108;47.532;19.084;2024-02-23T06:38:24;3.62;;;2.97;;
62121;SDS011;48108;47.532;19.084;2024-02-23T06:41:27;4.82;;;3.37;;
62121;SDS011;48108;47.532;19.084;2024-02-23T06:44:30;9.55;;;3.70;;
62121;SDS011;48108;47.532;19.084;2024-02-23T06:47:33;5.65;;;3.08;;
62121;SDS011;48108;47.532;19.084;2024-02-23T06:50:36;4.50;;;3.55;;
62121;SDS011;48108;47.532;19.084;2024-02-23T06:53:39;4.78;;;3.53;;
62121;SDS011;48108;47.532;19.084;2024-02-23T06:56:42;7.65;;;3.92;;
62121;SDS011;48108;47.532;19.084;2024-02-23T06:59:45;6.22;;;3.95;;
62121;SDS011;48108;47.532;19.084;2024-02-23T07:02:48;4.37;;;3.42;;
62121;SDS011;48108;47.532;19.084;2024-02-23T07:05:50;5.82;;;3.42;;
62121;SDS011;48108;47.532;19.084;2024-02-23T07:08:53;8.20;;;3.97;;
62121;SDS011;48108;47.532;19.084;2024-02-23T07:11:57;6.22;;;3.75;;
62121;SDS011;48108;47.532;19.084;2024-02-23T07:15:00;6.12;;;4.05;;
62121;SDS011;48108;47.532;19.084;2024-02-23T07:18:04;6.87;;;3.90;;
62121;SDS011;48108;47.532;19.084;2024-02-23T07:21:07;6.60;;;4.30;;
62121;SDS011;48108;47.532;19.084;2024-02-23T07:24:10;7.18;;;3.85;;
62121;SDS011;48108;47.532;19.084;2024-02-23T07:27:13;7.00;;;4.47;;
62121;SDS011;48108;47.532;19.084;2024-02-23T07:30:16;7.78;;;4.47;;
62121;SDS011;48108;47.532;19.084;2024-02-23T07:33:19;9.82;;;4.18;;
62121;SDS011;48108;47.532;19.084;2024-02-23T07:36:23;6.22;;;4.15;;
62121;SDS011;48108;47.532;19.084;2024-02-23T07:39:25;5.45;;;3.78;;
62121;SDS011;48108;47.532;19.084;2024-02-23T07:42:30;6.35;;;4.32;;
62121;SDS011;48108;47.532;19.084;2024-02-23T07:45:34;8.48;;;4.95;;
62121;SDS011;48108;47.532;19.084;2024-02-23T07:48:37;7.62;;;4.60;;
62121;SDS011;48108;47.532;19.084;2024-02-23T07:51:40;6.65;;;4.57;;
62121;SDS011;48108;47.532;19.084;2024-02-23T07:54:44;4.43;;;3.80;;
62121;SDS011;48108;47.532;19.084;2024-02-23T07:57:47;7.90;;;4.55;;
62121;SDS011;48108;47.532;19.084;2024-02-23T08:00:50;7.00;;;4.18;;
62121;SDS011;48108;47.532;19.084;2024-02-23T08:03:52;6.40;;;3.97;;
62121;SDS011;48108;47.532;19.084;2024-02-23T08:06:55;6.90;;;4.20;;
62121;SDS011;48108;47.532;19.084;2024-02-23T08:09:58;5.50;;;3.90;;
62121;SDS011;48108;47.532;19.084;2024-02-23T08:13:01;6.07;;;3.83;;
62121;SDS011;48108;47.532;19.084;2024-02-23T08:16:04;8.95;;;4.45;;
62121;SDS011;48108;47.532;19.084;2024-02-23T08:19:08;5.05;;;4.00;;
62121;SDS011;48108;47.532;19.084;2024-02-23T08:22:11;9.13;;;4.22;;
62121;SDS011;48108;47.532;19.084;2024-02-23T08:25:13;8.52;;;4.47;;
62121;SDS011;48108;47.532;19.084;2024-02-23T08:28:17;9.13;;;4.28;;
62121;SDS011;48108;47.532;19.084;2024-02-23T08:31:20;7.15;;;4.55;;
62121;SDS011;48108;47.532;19.084;2024-02-23T08:34:23;7.93;;;4.10;;
62121;SDS011;48108;47.532;19.084;2024-02-23T08:37:27;6.00;;;3.95;;
62121;SDS011;48108;47.532;19.084;2024-02-23T08:40:30;5.82;;;3.85;;
62121;SDS011;48108;47.532;19.084;2024-02-23T08:43:33;6.82;;;4.25;;
62121;SDS011;48108;47.532;19.084;2024-02-23T08:46:36;10.82;;;4.07;;
62121;SDS011;48108;47.532;19.084;2024-02-23T08:49:41;5.37;;;3.87;;
62121;SDS011;48108;47.532;19.084;2024-02-23T08:52:44;5.80;;;3.78;;
62121;SDS011;48108;47.532;19.084;2024-02-23T08:55:47;8.43;;;3.92;;
62121;SDS011;48108;47.532;19.084;2024-02-23T08:58:50;4.07;;;3.45;;
62121;SDS011;48108;47.532;19.084;2024-02-23T09:01:53;5.25;;;4.40;;
62121;SDS011;48108;47.532;19.084;2024-02-23T09:04:55;6.00;;;4.20;;
62121;SDS011;48108;47.532;19.084;2024-02-23T09:07:58;8.05;;;4.03;;
62121;SDS011;48108;47.532;19.084;2024-02-23T09:11:01;8.73;;;4.07;;
62121;SDS011;48108;47.532;19.084;2024-02-23T09:14:04;9.05;;;4.40;;
62121;SDS011;48108;47.532;19.084;2024-02-23T09:17:07;5.72;;;3.85;;
62121;SDS011;48108;47.532;19.084;2024-02-23T09:20:11;7.12;;;4.03;;
62121;SDS011;48108;47.532;19.084;2024-02-23T09:23:14;6.35;;;3.70;;
62121;SDS011;48108;47.532;19.084;2024-02-23T09:26:17;6.70;;;3.62;;
62121;SDS011;48108;47.532;19.084;2024-02-23T09:29:20;5.53;;;3.50;;
62121;SDS011;48108;47.532;19.084;2024-02-23T09:32:26;5.37;;;3.70;;
62121;SDS011;48108;47.532;19.084;2024-02-23T09:35:29;6.43;;;3.85;;
62121;SDS011;48108;47.532;19.084;2024-02-23T09:38:32;5.78;;;4.00;;
62121;SDS011;48108;47.532;19.084;2024-02-23T09:41:35;5.03;;;3.65;;
62121;SDS011;48108;47.532;19.084;2024-02-23T09:44:39;5.30;;;3.60;;
62121;SDS011;48108;47.532;19.084;2024-02-23T09:47:46;5.82;;;3.75;;
62121;SDS011;48108;47.532;19.084;2024-02-23T09:50:51;6.22;;;4.28;;
62121;SDS011;48108;47.532;19.084;2024-02-23T09:53:54;6.28;;;4.20;;
62121;SDS011;48108;47.532;19.084;2024-02-23T09:56:57;4.25;;;3.58;;
62121;SDS011;48108;47.532;19.084;2024-02-23T10:00:01;6.18;;;3.67;;
62121;SDS011;48108;47.532;19.084;2024-02-23T10:03:13;4.85;;;3.47;;
62121;SDS011;48108;47.532;19.084;2024-02-23T10:06:16;5.37;;;3.53;;
62121;SDS011;48108;47.532;19.084;2024-02-23T10:09:19;6.35;;;3.75;;
62121;SDS011;48108;47.532;19.084;2024-02-23T10:12:24;4.22;;;3.30;;
62121;SDS011;48108;47.532;19.084;2024-02-23T10:15:29;3.92;;;3.03;;
62121;SDS011;48108;47.532;19.084;2024-02-23T10:18:33;5.07;;;3.70;;
62121;SDS011;48108;47.532;19.084;2024-02-23T10:21:36;5.22;;;3.17;;
62121;SDS011;48108;47.532;19.084;2024-02-23T10:24:41;4.55;;;3.37;;
62121;SDS011;48108;47.532;19.084;2024-02-23T10:27:45;4.93;;;3.12;;
62121;SDS011;48108;47.532;19.084;2024-02-23T10:30:48;4.35;;;3.20;;
62121;SDS011;48108;47.532;19.084;2024-02-23T10:33:51;5.37;;;3.67;;
62121;SDS011;48108;47.532;19.084;2024-02-23T10:36:55;6.30;;;3.40;;
62121;SDS011;48108;47.532;19.084;2024-02-23T10:39:58;5.50;;;3.22;;
62121;SDS011;48108;47.532;19.084;2024-02-23T10:43:03;4.95;;;3.40;;
62121;SDS011;48108;47.532;19.084;2024-02-23T10:46:11;4.43;;;3.42;;
62121;SDS011;48108;47.532;19.084;2024-02-23T10:49:18;4.37;;;3.30;;
62121;SDS011;48108;47.532;19.084;2024-02-23T10:52:25;6.00;;;3.47;;
62121;SDS011;48108;47.532;19.084;2024-02-23T10:55:29;3.60;;;3.30;;
62121;SDS011;48108;47.532;19.084;2024-02-23T10:58:35;5.15;;;3.42;;
62121;SDS011;48108;47.532;19.084;2024-02-23T11:01:38;6.82;;;3.65;;
62121;SDS011;48108;47.532;19.084;2024-02-23T11:04:42;5.78;;;3.42;;
62121;SDS011;48108;47.532;19.084;2024-02-23T11:07:48;5.85;;;3.53;;
62121;SDS011;48108;47.532;19.084;2024-02-23T11:10:51;6.22;;;3.67;;
62121;SDS011;48108;47.532;19.084;2024-02-23T11:13:55;4.57;;;3.25;;
62121;SDS011;48108;47.532;19.084;2024-02-23T11:16:59;7.57;;;3.40;;
62121;SDS011;48108;47.532;19.084;2024-02-23T11:20:03;4.55;;;3.37;;
62121;SDS011;48108;47.532;19.084;2024-02-23T11:23:15;4.43;;;3.73;;
62121;SDS011;48108;47.532;19.084;2024-02-23T11:26:18;4.78;;;3.28;;
62121;SDS011;48108;47.532;19.084;2024-02-23T11:29:21;6.50;;;3.35;;
62121;SDS011;48108;47.532;19.084;2024-02-23T11:32:34;4.55;;;3.22;;
62121;SDS011;48108;47.532;19.084;2024-02-23T11:35:47;6.80;;;3.00;;
62121;SDS011;48108;47.532;19.084;2024-02-23T11:38:53;6.78;;;3.58;;
62121;SDS011;48108;47.532;19.084;2024-02-23T11:41:58;5.65;;;3.05;;
62121;SDS011;48108;47.532;19.084;2024-02-23T11:45:02;4.40;;;3.15;;
62121;SDS011;48108;47.532;19.084;2024-02-23T11:48:05;3.33;;;3.00;;
62121;SDS011;48108;47.532;19.084;2024-02-23T11:51:09;3.87;;;3.10;;
62121;SDS011;48108;47.532;19.084;2024-02-23T11:54:12;6.22;;;3.47;;
62121;SDS011;48108;47.532;19.084;2024-02-23T11:57:16;4.50;;;3.42;;
62121;SDS011;48108;47.532;19.084;2024-02-23T12:00:19;4.35;;;3.45;;
62121;SDS011;48108;47.532;19.084;2024-02-23T12:03:22;4.30;;;3.45;;
62121;SDS011;48108;47.532;19.084;2024-02-23T12:06:27;5.53;;;3.65;;
62121;SDS011;48108;47.532;19.084;2024-02-23T12:09:33;6.68;;;3.60;;
62121;SDS011;48108;47.532;19.084;2024-02-23T12:12:36;5.25;;;3.47;;
62121;SDS011;48108;47.532;19.084;2024-02-23T12:15:39;6.60;;;4.12;;
62121;SDS011;48108;47.532;19.084;2024-02-23T12:18:42;6.40;;;3.60;;
62121;SDS011;48108;47.532;19.084;2024-02-23T12:21:45;4.45;;;3.28;;
62121;SDS011;48108;47.532;19.084;2024-02-23T12:24:48;5.60;;;3.80;;
62121;SDS011;48108;47.532;19.084;2024-02-23T12:27:55;4.40;;;3.20;;
62121;SDS011;48108;47.532;19.084;2024-02-23T12:31:03;6.93;;;3.65;;
62121;SDS011;48108;47.532;19.084;2024-02-23T12:34:07;4.97;;;3.45;;
62121;SDS011;48108;47.532;19.084;2024-02-23T12:37:15;4.75;;;3.33;;
62121;SDS011;48108;47.532;19.084;2024-02-23T12:40:21;5.10;;;3.50;;
62121;SDS011;48108;47.532;19.084;2024-02-23T12:43:24;5.00;;;3.62;;
62121;SDS011;48108;47.532;19.084;2024-02-23T12:46:27;4.20;;;3.35;;
62121;SDS011;48108;47.532;19.084;2024-02-23T12:49:30;4.95;;;3.28;;
62121;SDS011;48108;47.532;19.084;2024-02-23T12:52:33;5.35;;;3.70;;
62121;SDS011;48108;47.532;19.084;2024-02-23T12:55:36;5.30;;;3.45;;
62121;SDS011;48108;47.532;19.084;2024-02-23T12:58:43;10.27;;;4.25;;
62121;SDS011;48108;47.532;19.084;2024-02-23T13:01:46;6.47;;;4.53;;
62121;SDS011;48108;47.532;19.084;2024-02-23T13:04:53;8.70;;;4.47;;
62121;SDS011;48108;47.532;19.084;2024-02-23T13:07:58;10.13;;;5.95;;
62121;SDS011;48108;47.532;19.084;2024-02-23T13:11:01;8.80;;;5.40;;
62121;SDS011;48108;47.532;19.084;2024-02-23T13:14:04;5.93;;;4.00;;
62121;SDS011;48108;47.532;19.084;2024-02-23T13:17:07;8.15;;;4.72;;
62121;SDS011;48108;47.532;19.084;2024-02-23T13:20:10;8.13;;;4.50;;
62121;SDS011;48108;47.532;19.084;2024-02-23T13:23:15;8.07;;;4.80;;
62121;SDS011;48108;47.532;19.084;2024-02-23T13:26:18;7.57;;;5.20;;
62121;SDS011;48108;47.532;19.084;2024-02-23T13:29:21;8.13;;;4.93;;
62121;SDS011;48108;47.532;19.084;2024-02-23T13:32:24;7.03;;;5.00;;
62121;SDS011;48108;47.532;19.084;2024-02-23T13:35:27;8.10;;;4.97;;
62121;SDS011;48108;47.532;19.084;2024-02-23T13:38:30;7.18;;;4.72;;
62121;SDS011;48108;47.532;19.084;2024-02-23T13:41:33;7.12;;;5.15;;
62121;SDS011;48108;47.532;19.084;2024-02-23T13:44:37;11.30;;;5.68;;
62121;SDS011;48108;47.532;19.084;2024-02-23T13:47:40;7.47;;;5.37;;
62121;SDS011;48108;47.532;19.084;2024-02-23T13:50:46;9.48;;;5.68;;
62121;SDS011;48108;47.532;19.084;2024-02-23T13:53:50;8.25;;;5.05;;
62121;SDS011;48108;47.532;19.084;2024-02-23T13:56:53;7.85;;;5.18;;
62121;SDS011;48108;47.532;19.084;2024-02-23T13:59:56;8.15;;;5.70;;
62121;SDS011;48108;47.532;19.084;2024-02-23T14:02:59;13.70;;;6.22;;
62121;SDS011;48108;47.532;19.084;2024-02-23T14:06:02;10.85;;;5.78;;
62121;SDS011;48108;47.532;19.084;2024-02-23T14:09:05;8.73;;;5.72;;
62121;SDS011;48108;47.532;19.084;2024-02-23T14:12:08;14.85;;;5.62;;
62121;SDS011;48108;47.532;19.084;2024-02-23T14:15:11;12.23;;;6.15;;
62121;SDS011;48108;47.532;19.084;2024-02-23T14:18:15;10.55;;;5.78;;
62121;SDS011;48108;47.532;19.084;2024-02-23T14:21:18;9.00;;;6.07;;
62121;SDS011;48108;47.532;19.084;2024-02-23T14:24:21;10.45;;;5.65;;
62121;SDS011;48108;47.532;19.084;2024-02-23T14:27:24;8.38;;;5.60;;
62121;SDS011;48108;47.532;19.084;2024-02-23T14:30:30;9.25;;;6.25;;
62121;SDS011;48108;47.532;19.084;2024-02-23T14:33:33;13.27;;;6.18;;
62121;SDS011;48108;47.532;19.084;2024-02-23T14:36:36;9.43;;;6.30;;
62121;SDS011;48108;47.532;19.084;2024-02-23T14:39:39;9.82;;;6.37;;
62121;SDS011;48108;47.532;19.084;2024-02-23T14:42:42;12.07;;;6.50;;
62121;SDS011;48108;47.532;19.084;2024-02-23T14:45:44;12.55;;;6.28;;
62121;SDS011;48108;47.532;19.084;2024-02-23T14:48:48;11.77;;;6.60;;
62121;SDS011;48108;47.532;19.084;2024-02-23T14:51:51;13.57;;;6.50;;
62121;SDS011;48108;47.532;19.084;2024-02-23T14:54:54;11.18;;;6.87;;
62121;SDS011;48108;47.532;19.084;2024-02-23T14:57:56;12.48;;;7.03;;
62121;SDS011;48108;47.532;19.084;2024-02-23T15:01:00;9.30;;;6.10;;
62121;SDS011;48108;47.532;19.084;2024-02-23T15:04:04;14.68;;;7.50;;
62121;SDS011;48108;47.532;19.084;2024-02-23T15:07:08;13.55;;;7.45;;
62121;SDS011;48108;47.532;19.084;2024-02-23T15:10:10;14.85;;;7.37;;
62121;SDS011;48108;47.532;19.084;2024-02-23T15:13:13;10.25;;;6.72;;
62121;SDS011;48108;47.532;19.084;2024-02-23T15:16:16;15.52;;;6.78;;
62121;SDS011;48108;47.532;19.084;2024-02-23T15:19:19;11.82;;;7.18;;
62121;SDS011;48108;47.532;19.084;2024-02-23T15:22:23;12.52;;;7.05;;
62121;SDS011;48108;47.532;19.084;2024-02-23T15:25:28;12.02;;;7.18;;
62121;SDS011;48108;47.532;19.084;2024-02-23T15:28:30;10.48;;;6.82;;
62121;SDS011;48108;47.532;19.084;2024-02-23T15:31:33;12.30;;;7.40;;
62121;SDS011;48108;47.532;19.084;2024-02-23T15:34:39;13.00;;;7.43;;
62121;SDS011;48108;47.532;19.084;2024-02-23T15:37:43;11.88;;;6.95;;
62121;SDS011;48108;47.532;19.084;2024-02-23T15:40:45;9.00;;;6.68;;
62121;SDS011;48108;47.532;19.084;2024-02-23T15:43:50;14.52;;;7.37;;
62121;SDS011;48108;47.532;19.084;2024-02-23T15:46:53;11.90;;;6.80;;
62121;SDS011;48108;47.532;19.084;2024-02-23T15:49:55;13.05;;;7.20;;
62121;SDS011;48108;47.532;19.084;2024-02-23T15:53:18;13.62;;;7.37;;
62121;SDS011;48108;47.532;19.084;2024-02-23T15:56:22;12.82;;;7.05;;
62121;SDS011;48108;47.532;19.084;2024-02-23T15:59:25;10.88;;;6.55;;
62121;SDS011;48108;47.532;19.084;2024-02-23T16:02:29;13.75;;;7.37;;
62121;SDS011;48108;47.532;19.084;2024-02-23T16:05:33;13.25;;;7.65;;
62121;SDS011;48108;47.532;19.084;2024-02-23T16:08:40;12.55;;;7.20;;
62121;SDS011;48108;47.532;19.084;2024-02-23T16:11:47;14.87;;;7.60;;
62121;SDS011;48108;47.532;19.084;2024-02-23T16:14:50;12.70;;;7.62;;
62121;SDS011;48108;47.532;19.084;2024-02-23T16:17:52;15.02;;;7.45;;
62121;SDS011;48108;47.532;19.084;2024-02-23T16:20:56;13.62;;;7.35;;
62121;SDS011;48108;47.532;19.084;2024-02-23T16:23:59;11.18;;;7.72;;
62121;SDS011;48108;47.532;19.084;2024-02-23T16:27:03;17.05;;;7.50;;
62121;SDS011;48108;47.532;19.084;2024-02-23T16:30:06;15.32;;;7.30;;
62121;SDS011;48108;47.532;19.084;2024-02-23T16:33:10;13.80;;;7.45;;
62121;SDS011;48108;47.532;19.084;2024-02-23T16:36:13;13.85;;;6.97;;
62121;SDS011;48108;47.532;19.084;2024-02-23T16:39:19;11.77;;;7.80;;
62121;SDS011;48108;47.532;19.084;2024-02-23T16:42:22;11.38;;;7.62;;
62121;SDS011;48108;47.532;19.084;2024-02-23T16:45:25;13.43;;;7.47;;
62121;SDS011;48108;47.532;19.084;2024-02-23T16:48:30;13.85;;;7.50;;
62121;SDS011;48108;47.532;19.084;2024-02-23T16:51:33;12.70;;;6.68;;
62121;SDS011;48108;47.532;19.084;2024-02-23T16:54:36;11.57;;;7.55;;
